createdAt,value
2022-11-01T00:00:10.064Z,11.93
2022-11-01T00:00:41.579Z,12.00
2022-11-01T00:01:13.149Z,12.50
2022-11-01T00:01:44.928Z,12.17
2022-11-01T00:02:16.613Z,11.30
2022-11-01T00:02:48.197Z,11.93
2022-11-01T00:03:19.694Z,13.50
2022-11-01T00:03:51.224Z,11.45
2022-11-01T00:04:22.856Z,11.32
2022-11-01T00:04:55.770Z,10.93
2022-11-01T00:05:27.276Z,11.85
2022-11-01T00:05:58.813Z,11.48
2022-11-01T00:06:30.383Z,11.63
2022-11-01T00:07:02.074Z,11.60
2022-11-01T00:07:33.604Z,11.50
2022-11-01T00:08:05.340Z,11.70
2022-11-01T00:08:36.974Z,11.82
2022-11-01T00:09:08.557Z,11.45
2022-11-01T00:09:40.075Z,11.52
2022-11-01T00:10:11.689Z,11.55
2022-11-01T00:10:43.247Z,11.90
2022-11-01T00:11:17.624Z,11.50
2022-11-01T00:11:49.633Z,12.13
2022-11-01T00:12:21.247Z,11.37
2022-11-01T00:12:52.754Z,12.20
2022-11-01T00:13:24.268Z,11.10
2022-11-01T00:13:55.818Z,11.68
2022-11-01T00:14:27.670Z,11.43
2022-11-01T00:14:59.295Z,11.43
2022-11-01T00:15:31.181Z,12.48
2022-11-01T00:16:02.695Z,12.40
2022-11-01T00:16:34.420Z,11.35
2022-11-01T00:17:06.035Z,11.52
2022-11-01T00:17:37.552Z,11.60
2022-11-01T00:18:09.305Z,12.30
2022-11-01T00:18:41.360Z,10.98
2022-11-01T00:19:13.009Z,10.98
2022-11-01T00:19:44.514Z,11.35
2022-11-01T00:20:16.747Z,11.52
2022-11-01T00:20:48.421Z,11.65
2022-11-01T00:21:20.256Z,11.30
2022-11-01T00:21:51.767Z,11.30
2022-11-01T00:22:23.483Z,11.32
2022-11-01T00:22:55.024Z,11.40
2022-11-01T00:23:26.545Z,11.57
2022-11-01T00:23:58.061Z,11.55
2022-11-01T00:24:31.565Z,11.73
2022-11-01T00:25:03.335Z,11.55
2022-11-01T00:25:36.246Z,11.05
2022-11-01T00:26:07.973Z,12.30
2022-11-01T00:26:39.667Z,12.25
2022-11-01T00:27:11.222Z,11.80
2022-11-01T00:27:42.801Z,12.10
2022-11-01T00:28:14.371Z,12.37
2022-11-01T00:28:46.368Z,11.93
2022-11-01T00:29:17.879Z,12.30
2022-11-01T00:29:49.438Z,12.63
2022-11-01T00:30:21.014Z,11.95
2022-11-01T00:30:54.114Z,12.23
2022-11-01T00:31:25.927Z,12.25
2022-11-01T00:31:57.465Z,11.02
2022-11-01T00:32:28.978Z,11.95
2022-11-01T00:33:00.485Z,12.52
2022-11-01T00:33:31.987Z,12.83
2022-11-01T00:34:06.098Z,12.25
2022-11-01T00:34:37.615Z,11.95
2022-11-01T00:35:09.341Z,12.10
2022-11-01T00:35:40.889Z,11.82
2022-11-01T00:36:13.080Z,12.82
2022-11-01T00:36:44.615Z,12.48
2022-11-01T00:37:16.130Z,11.73
2022-11-01T00:37:47.645Z,13.07
2022-11-01T00:38:19.729Z,12.65
2022-11-01T00:38:52.420Z,12.37
2022-11-01T00:39:28.844Z,13.05
2022-11-01T00:40:03.033Z,12.18
2022-11-01T00:40:34.603Z,12.95
2022-11-01T00:41:06.498Z,13.57
2022-11-01T00:41:38.003Z,12.75
2022-11-01T00:42:09.538Z,13.95
2022-11-01T00:42:41.041Z,12.90
2022-11-01T00:43:13.019Z,12.50
2022-11-01T00:43:44.681Z,12.35
2022-11-01T00:44:16.257Z,13.77
2022-11-01T00:44:47.780Z,13.30
2022-11-01T00:45:19.549Z,12.88
2022-11-01T00:45:51.622Z,12.38
2022-11-01T00:46:23.207Z,13.35
2022-11-01T00:46:54.714Z,12.30
2022-11-01T00:47:27.394Z,12.85
2022-11-01T00:47:59.658Z,13.55
2022-11-01T00:48:31.985Z,12.52
2022-11-01T00:49:03.645Z,12.63
2022-11-01T00:49:35.151Z,12.43
2022-11-01T00:50:07.145Z,12.93
2022-11-01T00:50:39.720Z,12.38
2022-11-01T00:51:11.635Z,12.82
2022-11-01T00:51:43.136Z,12.18
2022-11-01T00:52:14.690Z,11.68
2022-11-01T00:52:46.866Z,13.43
2022-11-01T00:53:18.831Z,12.20
2022-11-01T00:53:50.566Z,13.40
2022-11-01T00:54:22.078Z,13.38
2022-11-01T00:54:53.953Z,13.63
2022-11-01T00:55:25.526Z,12.30
2022-11-01T00:56:01.837Z,11.77
2022-11-01T00:56:33.415Z,12.43
2022-11-01T00:57:04.955Z,12.50
2022-11-01T00:57:36.710Z,12.38
2022-11-01T00:58:08.693Z,12.23
2022-11-01T00:58:40.231Z,12.57
2022-11-01T00:59:11.746Z,12.90
2022-11-01T00:59:43.315Z,12.38
2022-11-01T01:00:15.448Z,11.73
2022-11-01T01:00:48.111Z,11.77
2022-11-01T01:01:19.821Z,12.35
2022-11-01T01:01:51.647Z,13.15
2022-11-01T01:02:23.573Z,12.85
2022-11-01T01:02:55.461Z,12.70
2022-11-01T01:03:27.176Z,12.55
2022-11-01T01:03:59.570Z,12.05
2022-11-01T01:04:31.085Z,11.73
2022-11-01T01:05:02.727Z,11.07
2022-11-01T01:05:35.048Z,12.60
2022-11-01T01:06:06.654Z,11.80
2022-11-01T01:06:38.187Z,12.95
2022-11-01T01:07:10.516Z,11.63
2022-11-01T01:07:42.034Z,11.13
2022-11-01T01:08:13.573Z,11.52
2022-11-01T01:08:45.087Z,11.25
2022-11-01T01:09:16.605Z,11.90
2022-11-01T01:09:48.139Z,11.90
2022-11-01T01:10:19.744Z,10.93
2022-11-01T01:10:51.710Z,11.33
2022-11-01T01:11:23.233Z,11.20
2022-11-01T01:11:54.999Z,11.95
2022-11-01T01:12:26.543Z,11.00
2022-11-01T01:12:58.199Z,11.38
2022-11-01T01:13:29.862Z,11.07
2022-11-01T01:14:01.365Z,11.48
2022-11-01T01:14:32.892Z,11.00
2022-11-01T01:15:05.191Z,11.73
2022-11-01T01:15:38.718Z,11.30
2022-11-01T01:16:11.899Z,12.03
2022-11-01T01:16:43.416Z,11.23
2022-11-01T01:17:15.110Z,11.45
2022-11-01T01:17:46.675Z,11.20
2022-11-01T01:18:18.373Z,10.40
2022-11-01T01:18:49.868Z,11.05
2022-11-01T01:19:21.432Z,11.43
2022-11-01T01:19:53.110Z,11.38
2022-11-01T01:20:24.679Z,10.98
2022-11-01T01:21:03.291Z,11.18
2022-11-01T01:21:34.934Z,11.47
2022-11-01T01:22:07.153Z,11.52
2022-11-01T01:22:38.695Z,11.48
2022-11-01T01:23:10.259Z,12.23
2022-11-01T01:23:43.384Z,10.98
2022-11-01T01:24:15.031Z,11.48
2022-11-01T01:24:47.696Z,11.63
2022-11-01T01:25:20.912Z,11.88
2022-11-01T01:25:52.502Z,12.02
2022-11-01T01:26:24.134Z,11.30
2022-11-01T01:26:55.695Z,11.52
2022-11-01T01:27:27.288Z,10.95
2022-11-01T01:27:58.952Z,11.48
2022-11-01T01:28:30.546Z,11.70
2022-11-01T01:29:02.104Z,11.90
2022-11-01T01:29:35.099Z,11.55
2022-11-01T01:30:10.182Z,11.43
2022-11-01T01:30:41.882Z,11.35
2022-11-01T01:31:13.981Z,11.05
2022-11-01T01:31:45.570Z,10.80
2022-11-01T01:32:22.374Z,11.13
2022-11-01T01:32:54.018Z,10.80
2022-11-01T01:33:25.566Z,12.35
2022-11-01T01:34:00.237Z,11.00
2022-11-01T01:34:33.024Z,11.98
2022-11-01T01:35:04.994Z,11.65
2022-11-01T01:35:38.821Z,11.70
2022-11-01T01:36:10.742Z,10.73
2022-11-01T01:36:42.313Z,11.23
2022-11-01T01:37:15.241Z,10.80
2022-11-01T01:37:46.806Z,10.93
2022-11-01T01:38:18.330Z,12.00
2022-11-01T01:38:53.251Z,11.82
2022-11-01T01:39:24.761Z,11.43
2022-11-01T01:39:56.500Z,11.38
2022-11-01T01:40:28.028Z,11.00
2022-11-01T01:41:19.504Z,11.45
2022-11-01T01:41:57.223Z,10.50
2022-11-01T01:42:34.508Z,10.80
2022-11-01T01:43:06.052Z,9.88
2022-11-01T01:43:42.117Z,11.20
2022-11-01T01:44:44.827Z,10.40
2022-11-01T01:45:31.470Z,10.63
2022-11-01T01:46:02.984Z,10.52
2022-11-01T01:46:35.147Z,10.48
2022-11-01T01:47:06.875Z,10.95
2022-11-01T01:47:40.511Z,10.45
2022-11-01T01:48:24.630Z,11.82
2022-11-01T01:48:59.548Z,10.93
2022-11-01T01:49:31.104Z,10.30
2022-11-01T01:50:11.677Z,10.23
2022-11-01T01:50:57.269Z,10.50
2022-11-01T01:51:29.849Z,10.27
2022-11-01T01:52:01.976Z,10.30
2022-11-01T01:52:40.112Z,9.98
2022-11-01T01:53:17.516Z,10.70
2022-11-01T01:53:53.388Z,10.63
2022-11-01T01:54:24.997Z,10.52
2022-11-01T01:54:57.199Z,10.52
2022-11-01T01:55:37.941Z,10.48
2022-11-01T01:56:20.487Z,11.03
2022-11-01T01:56:52.037Z,10.40
2022-11-01T01:57:24.678Z,10.73
2022-11-01T01:57:57.809Z,10.23
2022-11-01T01:58:33.070Z,10.00
2022-11-01T01:59:07.824Z,10.70
2022-11-01T01:59:40.409Z,10.82
2022-11-01T02:00:12.742Z,9.77
2022-11-01T02:01:18.610Z,9.55
2022-11-01T02:01:50.350Z,10.95
2022-11-01T02:02:22.150Z,10.45
2022-11-01T02:02:53.923Z,11.45
2022-11-01T02:03:30.033Z,9.82
2022-11-01T02:04:03.623Z,10.70
2022-11-01T02:04:40.687Z,9.88
2022-11-01T02:05:30.236Z,10.73
2022-11-01T02:06:10.178Z,10.68
2022-11-01T02:06:41.950Z,10.50
2022-11-01T02:07:13.505Z,10.68
2022-11-01T02:07:46.434Z,10.98
2022-11-01T02:08:27.670Z,10.40
2022-11-01T02:09:01.409Z,10.43
2022-11-01T02:09:33.464Z,10.43
2022-11-01T02:10:05.895Z,10.93
2022-11-01T02:10:37.595Z,11.05
2022-11-01T02:11:10.368Z,11.23
2022-11-01T02:11:41.958Z,11.32
2022-11-01T02:12:14.433Z,11.60
2022-11-01T02:12:48.880Z,11.70
2022-11-01T02:13:20.393Z,10.85
2022-11-01T02:13:52.161Z,11.60
2022-11-01T02:14:25.776Z,11.15
2022-11-01T02:14:57.301Z,10.93
2022-11-01T02:15:39.223Z,12.38
2022-11-01T02:16:41.708Z,11.07
2022-11-01T02:17:36.254Z,10.40
2022-11-01T02:18:30.896Z,11.43
2022-11-01T02:19:05.427Z,10.55
2022-11-01T02:19:42.720Z,11.35
2022-11-01T02:20:32.345Z,11.98
2022-11-01T02:21:18.819Z,10.55
2022-11-01T02:21:53.384Z,11.40
2022-11-01T02:23:53.516Z,11.45
2022-11-01T02:24:46.973Z,10.70
2022-11-01T02:25:40.333Z,11.10
2022-11-01T02:26:20.869Z,10.45
2022-11-01T02:27:14.712Z,11.10
2022-11-01T02:28:08.838Z,11.13
2022-11-01T02:28:40.320Z,10.52
2022-11-01T02:29:53.552Z,11.43
2022-11-01T02:30:33.554Z,10.82
2022-11-01T02:31:23.520Z,11.68
2022-11-01T02:32:22.663Z,10.00
2022-11-01T02:33:00.165Z,10.95
2022-11-01T02:33:42.836Z,10.27
2022-11-01T02:34:32.911Z,10.85
2022-11-01T02:35:15.316Z,10.05
2022-11-01T02:36:02.201Z,10.15
2022-11-01T02:36:44.341Z,10.68
2022-11-01T02:37:18.810Z,11.13
2022-11-01T02:38:15.285Z,10.65
2022-11-01T02:39:03.271Z,10.50
2022-11-01T02:39:40.096Z,10.30
2022-11-01T02:40:21.282Z,10.25
2022-11-01T02:40:59.121Z,10.63
2022-11-01T02:41:37.053Z,11.40
2022-11-01T02:42:27.786Z,11.02
2022-11-01T02:43:05.318Z,10.95
2022-11-01T02:43:52.317Z,11.90
2022-11-01T02:44:27.882Z,10.73
2022-11-01T02:45:05.585Z,11.48
2022-11-01T02:45:41.959Z,12.27
2022-11-01T02:46:33.063Z,11.50
2022-11-01T02:47:06.215Z,9.98
2022-11-01T02:47:40.428Z,11.65
2022-11-01T02:48:11.982Z,11.68
2022-11-01T02:48:43.722Z,11.52
2022-11-01T02:49:17.585Z,11.13
2022-11-01T02:49:53.931Z,11.75
2022-11-01T02:50:29.253Z,11.98
2022-11-01T02:51:00.812Z,11.48
2022-11-01T02:51:33.304Z,11.05
2022-11-01T02:52:08.328Z,11.40
2022-11-01T02:52:41.119Z,11.05
2022-11-01T02:53:13.047Z,12.43
2022-11-01T02:53:44.556Z,11.45
2022-11-01T02:54:40.381Z,11.63
2022-11-01T02:55:30.689Z,11.07
2022-11-01T02:56:02.501Z,11.13
2022-11-01T02:56:35.240Z,11.38
2022-11-01T02:57:20.917Z,11.63
2022-11-01T02:57:52.588Z,10.93
2022-11-01T02:58:27.435Z,11.40
2022-11-01T02:58:59.777Z,10.40
2022-11-01T02:59:46.167Z,11.60
2022-11-01T03:00:26.680Z,10.98
2022-11-01T03:00:58.270Z,11.68
2022-11-01T03:01:34.469Z,12.07
2022-11-01T03:02:11.556Z,12.07
2022-11-01T03:02:45.043Z,11.50
2022-11-01T03:03:26.474Z,11.63
2022-11-01T03:03:59.962Z,11.65
2022-11-01T03:04:31.564Z,11.80
2022-11-01T03:05:04.299Z,10.68
2022-11-01T03:05:57.336Z,11.48
2022-11-01T03:06:39.897Z,11.52
2022-11-01T03:07:13.637Z,11.00
2022-11-01T03:07:50.033Z,11.63
2022-11-01T03:08:33.122Z,11.25
2022-11-01T03:09:08.434Z,11.30
2022-11-01T03:09:41.189Z,10.93
2022-11-01T03:10:13.286Z,12.38
2022-11-01T03:11:05.886Z,11.55
2022-11-01T03:11:59.284Z,11.13
2022-11-01T03:12:35.359Z,12.07
2022-11-01T03:13:16.276Z,12.90
2022-11-01T03:14:01.700Z,11.30
2022-11-01T03:14:50.032Z,11.07
2022-11-01T03:15:27.272Z,12.23
2022-11-01T03:16:16.729Z,11.57
2022-11-01T03:17:01.622Z,11.05
2022-11-01T03:17:45.279Z,11.77
2022-11-01T03:18:32.446Z,12.20
2022-11-01T03:19:06.935Z,11.82
2022-11-01T03:19:56.654Z,11.70
2022-11-01T03:20:49.284Z,11.93
2022-11-01T03:21:25.973Z,12.65
2022-11-01T03:22:26.675Z,12.07
2022-11-01T03:23:01.492Z,11.90
2022-11-01T03:23:39.182Z,13.10
2022-11-01T03:24:48.031Z,12.15
2022-11-01T03:25:39.917Z,12.18
2022-11-01T03:26:15.582Z,11.60
2022-11-01T03:26:55.062Z,11.32
2022-11-01T03:27:53.705Z,11.95
2022-11-01T03:28:29.501Z,11.45
2022-11-01T03:29:05.544Z,12.77
2022-11-01T03:29:39.635Z,12.70
2022-11-01T03:30:14.241Z,13.13
2022-11-01T03:30:50.976Z,12.07
2022-11-01T03:31:27.946Z,12.90
2022-11-01T03:32:02.952Z,12.90
2022-11-01T03:32:48.794Z,13.35
2022-11-01T03:33:21.692Z,13.82
2022-11-01T03:33:57.817Z,13.27
2022-11-01T03:34:32.130Z,13.40
2022-11-01T03:35:04.919Z,12.70
2022-11-01T03:35:39.134Z,12.80
2022-11-01T03:36:15.028Z,13.53
2022-11-01T03:36:55.274Z,13.18
2022-11-01T03:37:28.932Z,13.00
2022-11-01T03:38:05.198Z,13.25
2022-11-01T03:38:41.877Z,13.25
2022-11-01T03:39:43.098Z,12.98
2022-11-01T03:40:17.815Z,13.05
2022-11-01T03:40:54.002Z,12.57
2022-11-01T03:41:27.416Z,13.55
2022-11-01T03:42:03.729Z,12.38
2022-11-01T03:42:37.883Z,13.03
2022-11-01T03:43:12.273Z,13.73
2022-11-01T03:43:43.908Z,13.02
2022-11-01T03:44:16.244Z,12.73
2022-11-01T03:44:52.373Z,13.23
2022-11-01T03:45:25.940Z,12.65
2022-11-01T03:45:57.809Z,12.95
2022-11-01T03:46:29.534Z,12.10
2022-11-01T03:47:01.394Z,12.50
2022-11-01T03:47:34.745Z,13.25
2022-11-01T03:48:07.361Z,13.35
2022-11-01T03:48:40.257Z,14.25
2022-11-01T03:49:16.960Z,12.93
2022-11-01T03:49:48.544Z,13.40
2022-11-01T03:50:21.645Z,13.13
2022-11-01T03:50:56.272Z,13.60
2022-11-01T03:51:27.808Z,12.85
2022-11-01T03:51:59.561Z,14.00
2022-11-01T03:52:31.092Z,14.45
2022-11-01T03:53:02.941Z,14.23
2022-11-01T03:53:34.460Z,13.40
2022-11-01T03:54:10.934Z,14.40
2022-11-01T03:54:42.698Z,13.20
2022-11-01T03:55:18.772Z,14.13
2022-11-01T03:55:50.741Z,14.07
2022-11-01T03:56:22.514Z,12.57
2022-11-01T03:56:54.094Z,14.27
2022-11-01T03:57:25.781Z,13.40
2022-11-01T03:57:58.703Z,13.63
2022-11-01T03:58:41.823Z,13.50
2022-11-01T03:59:13.608Z,12.45
2022-11-01T03:59:45.120Z,13.30
2022-11-01T04:00:22.658Z,13.15
2022-11-01T04:00:55.858Z,13.07
2022-11-01T04:01:27.536Z,12.95
2022-11-01T04:01:59.286Z,13.32
2022-11-01T04:02:32.110Z,13.45
2022-11-01T04:03:04.101Z,13.70
2022-11-01T04:03:36.019Z,13.60
2022-11-01T04:04:07.523Z,13.82
2022-11-01T04:04:39.061Z,14.00
2022-11-01T04:05:11.588Z,14.07
2022-11-01T04:05:43.480Z,13.75
2022-11-01T04:06:15.001Z,13.80
2022-11-01T04:06:46.580Z,13.60
2022-11-01T04:07:18.201Z,13.30
2022-11-01T04:07:51.591Z,13.70
2022-11-01T04:08:23.121Z,14.32
2022-11-01T04:08:54.715Z,13.90
2022-11-01T04:09:26.281Z,12.60
2022-11-01T04:09:57.798Z,14.30
2022-11-01T04:10:29.509Z,14.10
2022-11-01T04:11:01.053Z,13.20
2022-11-01T04:11:32.902Z,12.57
2022-11-01T04:12:04.534Z,13.48
2022-11-01T04:12:36.333Z,13.60
2022-11-01T04:13:08.764Z,14.27
2022-11-01T04:13:40.405Z,14.02
2022-11-01T04:14:30.785Z,14.05
2022-11-01T04:15:21.090Z,13.20
2022-11-01T04:16:11.081Z,13.15
2022-11-01T04:17:00.909Z,13.35
2022-11-01T04:17:50.778Z,12.80
2022-11-01T04:18:42.627Z,13.60
2022-11-01T04:19:32.749Z,12.52
2022-11-01T04:20:23.038Z,12.77
2022-11-01T04:20:54.650Z,12.45
2022-11-01T04:21:26.601Z,13.88
2022-11-01T04:21:58.133Z,13.55
2022-11-01T04:22:29.663Z,12.95
2022-11-01T04:23:03.401Z,14.30
2022-11-01T04:23:35.574Z,13.20
2022-11-01T04:24:08.333Z,13.38
2022-11-01T04:24:39.844Z,13.43
2022-11-01T04:25:11.386Z,14.20
2022-11-01T04:25:44.869Z,13.57
2022-11-01T04:26:18.910Z,13.70
2022-11-01T04:26:50.475Z,14.52
2022-11-01T04:27:21.985Z,13.05
2022-11-01T04:27:56.350Z,14.50
2022-11-01T04:28:28.089Z,13.90
2022-11-01T04:28:59.711Z,13.38
2022-11-01T04:29:31.262Z,14.45
2022-11-01T04:30:02.978Z,13.90
2022-11-01T04:30:34.496Z,14.10
2022-11-01T04:31:06.708Z,13.95
2022-11-01T04:31:38.237Z,14.88
2022-11-01T04:32:09.759Z,13.57
2022-11-01T04:32:44.799Z,14.13
2022-11-01T04:33:16.348Z,13.75
2022-11-01T04:33:47.861Z,13.87
2022-11-01T04:34:39.330Z,13.88
2022-11-01T04:35:12.286Z,13.32
2022-11-01T04:35:43.913Z,13.43
2022-11-01T04:36:15.462Z,13.00
2022-11-01T04:36:46.971Z,13.70
2022-11-01T04:37:18.501Z,13.82
2022-11-01T04:37:57.366Z,13.75
2022-11-01T04:38:28.896Z,13.75
2022-11-01T04:39:00.496Z,13.00
2022-11-01T04:39:32.034Z,14.00
2022-11-01T04:40:04.386Z,12.98
2022-11-01T04:40:35.978Z,12.65
2022-11-01T04:41:07.524Z,13.80
2022-11-01T04:41:39.035Z,13.48
2022-11-01T04:42:10.909Z,12.88
2022-11-01T04:42:42.448Z,13.93
2022-11-01T04:43:14.002Z,13.70
2022-11-01T04:43:49.770Z,13.65
2022-11-01T04:44:21.314Z,13.40
2022-11-01T04:44:52.841Z,14.40
2022-11-01T04:45:24.465Z,13.95
2022-11-01T04:45:57.241Z,13.60
2022-11-01T04:46:32.039Z,14.25
2022-11-01T04:47:03.612Z,13.77
2022-11-01T04:47:35.560Z,14.13
2022-11-01T04:48:16.845Z,13.98
2022-11-01T04:48:48.828Z,13.00
2022-11-01T04:49:20.368Z,13.45
2022-11-01T04:49:51.937Z,13.85
2022-11-01T04:50:23.600Z,14.50
2022-11-01T04:50:55.142Z,13.88
2022-11-01T04:51:26.876Z,13.73
2022-11-01T04:51:58.507Z,14.68
2022-11-01T04:52:30.059Z,13.07
2022-11-01T04:53:02.006Z,14.55
2022-11-01T04:53:33.869Z,14.05
2022-11-01T04:54:05.469Z,13.38
2022-11-01T04:54:36.968Z,15.02
2022-11-01T04:55:09.039Z,13.75
2022-11-01T04:55:40.814Z,13.73
2022-11-01T04:56:13.641Z,13.75
2022-11-01T04:56:45.246Z,14.45
2022-11-01T04:57:26.169Z,14.70
2022-11-01T04:57:57.708Z,14.35
2022-11-01T04:58:29.735Z,13.95
2022-11-01T04:59:01.264Z,14.52
2022-11-01T04:59:32.765Z,14.13
2022-11-01T05:00:05.117Z,12.52
2022-11-01T05:00:37.516Z,13.85
2022-11-01T05:01:09.563Z,13.57
2022-11-01T05:01:41.292Z,13.95
2022-11-01T05:02:12.925Z,14.07
2022-11-01T05:02:44.568Z,14.25
2022-11-01T05:03:16.096Z,14.25
2022-11-01T05:03:48.339Z,13.43
2022-11-01T05:04:19.889Z,13.98
2022-11-01T05:04:51.399Z,13.13
2022-11-01T05:05:22.899Z,13.63
2022-11-01T05:05:54.409Z,13.45
2022-11-01T05:06:25.917Z,13.07
2022-11-01T05:06:58.790Z,13.63
2022-11-01T05:07:30.319Z,13.07
2022-11-01T05:08:03.900Z,13.68
2022-11-01T05:08:35.544Z,14.00
2022-11-01T05:09:07.132Z,13.63
2022-11-01T05:09:38.670Z,14.65
2022-11-01T05:10:10.542Z,13.32
2022-11-01T05:10:44.089Z,13.65
2022-11-01T05:11:15.608Z,14.32
2022-11-01T05:11:47.130Z,13.23
2022-11-01T05:12:19.230Z,13.65
2022-11-01T05:12:50.800Z,13.32
2022-11-01T05:13:23.849Z,14.02
2022-11-01T05:13:55.871Z,13.77
2022-11-01T05:14:27.380Z,13.07
2022-11-01T05:14:58.961Z,13.60
2022-11-01T05:15:30.501Z,13.40
2022-11-01T05:16:18.867Z,13.77
2022-11-01T05:16:51.450Z,13.80
2022-11-01T05:17:23.026Z,13.07
2022-11-01T05:17:54.596Z,13.13
2022-11-01T05:18:26.208Z,13.68
2022-11-01T05:18:57.754Z,13.65
2022-11-01T05:19:29.261Z,14.02
2022-11-01T05:20:00.813Z,13.77
2022-11-01T05:20:32.363Z,13.80
2022-11-01T05:21:03.930Z,13.15
2022-11-01T05:21:35.442Z,14.20
2022-11-01T05:22:06.962Z,13.48
2022-11-01T05:22:38.540Z,13.67
2022-11-01T05:23:10.081Z,13.13
2022-11-01T05:23:41.604Z,13.55
2022-11-01T05:24:13.278Z,13.60
2022-11-01T05:24:45.124Z,13.10
2022-11-01T05:25:17.969Z,12.98
2022-11-01T05:25:49.554Z,14.73
2022-11-01T05:26:21.169Z,14.15
2022-11-01T05:26:52.699Z,13.32
2022-11-01T05:27:24.322Z,13.80
2022-11-01T05:28:05.857Z,13.40
2022-11-01T05:28:37.390Z,14.25
2022-11-01T05:29:23.908Z,14.20
2022-11-01T05:29:56.153Z,13.35
2022-11-01T05:30:28.036Z,14.68
2022-11-01T05:30:59.551Z,14.32
2022-11-01T05:31:31.112Z,16.02
2022-11-01T05:32:02.692Z,15.02
2022-11-01T05:32:35.666Z,14.40
2022-11-01T05:33:08.558Z,14.38
2022-11-01T05:33:40.065Z,16.00
2022-11-01T05:34:11.590Z,15.60
2022-11-01T05:34:43.110Z,16.50
2022-11-01T05:35:14.705Z,15.13
2022-11-01T05:35:46.211Z,15.75
2022-11-01T05:36:17.714Z,13.98
2022-11-01T05:36:49.232Z,14.73
2022-11-01T05:37:24.468Z,14.73
2022-11-01T05:37:58.725Z,14.48
2022-11-01T05:38:30.305Z,14.80
2022-11-01T05:39:01.938Z,13.60
2022-11-01T05:39:33.441Z,15.32
2022-11-01T05:40:05.499Z,15.30
2022-11-01T05:40:37.062Z,14.35
2022-11-01T05:41:08.665Z,15.45
2022-11-01T05:41:43.275Z,15.15
2022-11-01T05:42:14.795Z,14.57
2022-11-01T05:42:46.390Z,14.30
2022-11-01T05:43:17.900Z,15.50
2022-11-01T05:43:49.425Z,14.75
2022-11-01T05:44:20.990Z,15.93
2022-11-01T05:44:52.613Z,14.38
2022-11-01T05:45:24.389Z,15.15
2022-11-01T05:45:55.954Z,15.45
2022-11-01T05:46:27.614Z,14.05
2022-11-01T05:46:59.218Z,16.30
2022-11-01T05:47:32.744Z,14.77
2022-11-01T05:48:05.058Z,14.95
2022-11-01T05:48:36.577Z,15.07
2022-11-01T05:49:08.082Z,14.82
2022-11-01T05:49:39.594Z,15.13
2022-11-01T05:50:13.365Z,16.13
2022-11-01T05:50:45.372Z,15.80
2022-11-01T05:51:16.982Z,14.52
2022-11-01T05:51:48.618Z,14.85
2022-11-01T05:52:20.142Z,14.30
2022-11-01T05:52:51.689Z,15.82
2022-11-01T05:53:23.276Z,14.23
2022-11-01T05:53:54.798Z,15.02
2022-11-01T05:54:26.296Z,15.23
2022-11-01T05:54:57.803Z,15.23
2022-11-01T05:55:29.499Z,15.93
2022-11-01T05:56:01.141Z,15.35
2022-11-01T05:56:32.684Z,15.43
2022-11-01T05:57:05.703Z,15.55
2022-11-01T05:57:37.271Z,14.75
2022-11-01T05:58:09.026Z,14.00
2022-11-01T05:58:40.678Z,15.07
2022-11-01T05:59:12.278Z,16.10
2022-11-01T05:59:43.797Z,14.50
2022-11-01T06:00:15.432Z,16.13
2022-11-01T06:00:46.938Z,15.18
2022-11-01T06:01:18.669Z,16.10
2022-11-01T06:01:50.431Z,14.40
2022-11-01T06:02:22.225Z,16.10
2022-11-01T06:02:53.846Z,13.88
2022-11-01T06:03:25.622Z,14.60
2022-11-01T06:04:01.773Z,15.85
2022-11-01T06:04:33.332Z,15.70
2022-11-01T06:05:05.149Z,14.93
2022-11-01T06:05:38.177Z,16.27
2022-11-01T06:06:10.706Z,15.23
2022-11-01T06:06:42.225Z,14.82
2022-11-01T06:07:13.851Z,15.55
2022-11-01T06:07:45.361Z,16.42
2022-11-01T06:08:16.907Z,16.48
2022-11-01T06:08:48.441Z,15.68
2022-11-01T06:09:19.940Z,15.65
2022-11-01T06:09:51.466Z,16.90
2022-11-01T06:10:23.140Z,15.27
2022-11-01T06:11:02.767Z,16.30
2022-11-01T06:11:39.128Z,15.85
2022-11-01T06:12:12.963Z,16.13
2022-11-01T06:12:44.513Z,16.17
2022-11-01T06:13:16.262Z,16.02
2022-11-01T06:13:47.868Z,15.32
2022-11-01T06:14:19.381Z,15.77
2022-11-01T06:14:51.410Z,16.27
2022-11-01T06:15:23.602Z,15.15
2022-11-01T06:15:59.888Z,15.93
2022-11-01T06:16:31.433Z,14.10
2022-11-01T06:17:02.953Z,15.23
2022-11-01T06:17:34.579Z,15.65
2022-11-01T06:18:06.472Z,15.48
2022-11-01T06:18:38.403Z,15.82
2022-11-01T06:19:09.990Z,16.25
2022-11-01T06:19:41.515Z,16.20
2022-11-01T06:20:13.117Z,15.18
2022-11-01T06:20:44.644Z,14.55
2022-11-01T06:21:16.240Z,15.35
2022-11-01T06:21:47.775Z,15.63
2022-11-01T06:22:19.785Z,15.63
2022-11-01T06:22:51.331Z,17.08
2022-11-01T06:23:23.046Z,15.85
2022-11-01T06:23:54.638Z,15.63
2022-11-01T06:24:26.201Z,15.23
2022-11-01T06:24:57.755Z,16.20
2022-11-01T06:25:29.331Z,13.90
2022-11-01T06:26:02.773Z,15.05
2022-11-01T06:26:34.344Z,15.27
2022-11-01T06:27:09.935Z,15.80
2022-11-01T06:27:43.961Z,13.32
2022-11-01T06:28:16.285Z,15.40
2022-11-01T06:28:47.959Z,15.38
2022-11-01T06:29:19.472Z,15.20
2022-11-01T06:29:50.985Z,15.48
2022-11-01T06:30:22.710Z,14.25
2022-11-01T06:30:54.342Z,15.00
2022-11-01T06:31:25.941Z,14.45
2022-11-01T06:31:57.450Z,14.32
2022-11-01T06:32:29.040Z,15.50
2022-11-01T06:33:01.568Z,14.52
2022-11-01T06:33:33.563Z,15.18
2022-11-01T06:34:05.273Z,14.80
2022-11-01T06:34:40.842Z,16.00
2022-11-01T06:35:15.630Z,14.73
2022-11-01T06:35:47.153Z,14.65
2022-11-01T06:36:18.729Z,15.00
2022-11-01T06:36:50.285Z,14.77
2022-11-01T06:37:21.845Z,13.73
2022-11-01T06:37:54.694Z,14.90
2022-11-01T06:38:26.315Z,14.43
2022-11-01T06:38:57.877Z,15.10
2022-11-01T06:39:29.415Z,14.05
2022-11-01T06:40:00.922Z,13.90
2022-11-01T06:40:35.849Z,14.73
2022-11-01T06:41:07.411Z,14.23
2022-11-01T06:41:38.925Z,14.02
2022-11-01T06:42:10.447Z,15.23
2022-11-01T06:42:46.442Z,14.80
2022-11-01T06:43:18.495Z,14.30
2022-11-01T06:43:50.219Z,14.40
2022-11-01T06:44:22.698Z,14.77
2022-11-01T06:44:54.248Z,14.63
2022-11-01T06:45:25.801Z,13.35
2022-11-01T06:46:00.443Z,15.40
2022-11-01T06:46:31.961Z,13.48
2022-11-01T06:47:03.579Z,14.63
2022-11-01T06:47:35.119Z,14.05
2022-11-01T06:48:06.850Z,13.35
2022-11-01T06:48:38.565Z,14.70
2022-11-01T06:49:12.373Z,13.65
2022-11-01T06:49:46.274Z,13.48
2022-11-01T06:50:17.801Z,14.57
2022-11-01T06:50:49.366Z,14.15
2022-11-01T06:51:21.181Z,14.32
2022-11-01T06:51:52.693Z,14.07
2022-11-01T06:52:24.227Z,15.07
2022-11-01T06:52:57.729Z,14.75
2022-11-01T06:53:30.188Z,14.68
2022-11-01T06:54:01.865Z,15.38
2022-11-01T06:54:33.455Z,14.98
2022-11-01T06:55:05.353Z,14.23
2022-11-01T06:55:37.423Z,14.95
2022-11-01T06:56:08.933Z,14.52
2022-11-01T06:56:40.461Z,14.65
2022-11-01T06:57:11.983Z,14.30
2022-11-01T06:57:43.567Z,13.93
2022-11-01T06:58:15.075Z,13.88
2022-11-01T06:58:50.059Z,14.73
2022-11-01T06:59:21.753Z,13.85
2022-11-01T06:59:53.277Z,14.43
2022-11-01T07:00:26.377Z,14.27
2022-11-01T07:00:57.954Z,14.75
2022-11-01T07:01:29.631Z,15.95
2022-11-01T07:02:01.390Z,14.85
2022-11-01T07:02:33.078Z,14.60
2022-11-01T07:03:11.301Z,14.40
2022-11-01T07:03:42.813Z,14.40
2022-11-01T07:04:14.404Z,14.60
2022-11-01T07:04:45.918Z,14.40
2022-11-01T07:05:17.439Z,14.05
2022-11-01T07:05:50.122Z,15.63
2022-11-01T07:06:24.184Z,14.40
2022-11-01T07:06:55.739Z,14.55
2022-11-01T07:07:27.275Z,15.05
2022-11-01T07:08:00.793Z,16.25
2022-11-01T07:08:32.552Z,15.32
2022-11-01T07:09:04.308Z,15.25
2022-11-01T07:09:36.078Z,15.07
2022-11-01T07:10:08.896Z,16.70
2022-11-01T07:10:43.113Z,16.20
2022-11-01T07:11:14.650Z,15.98
2022-11-01T07:11:46.205Z,15.25
2022-11-01T07:12:18.146Z,15.77
2022-11-01T07:12:49.692Z,15.52
2022-11-01T07:13:21.196Z,15.88
2022-11-01T07:13:52.864Z,15.80
2022-11-01T07:14:24.376Z,15.65
2022-11-01T07:14:55.888Z,15.35
2022-11-01T07:15:28.629Z,14.83
2022-11-01T07:16:01.687Z,15.70
2022-11-01T07:16:33.419Z,15.27
2022-11-01T07:17:04.946Z,15.27
2022-11-01T07:17:36.676Z,15.18
2022-11-01T07:18:08.780Z,15.02
2022-11-01T07:18:40.322Z,14.25
2022-11-01T07:19:12.124Z,15.88
2022-11-01T07:19:43.637Z,14.75
2022-11-01T07:20:15.214Z,15.00
2022-11-01T07:21:23.700Z,14.30
2022-11-01T07:21:55.224Z,14.68